createdAt,value
2023-01-27T00:02:14.401Z,98023.91
2023-01-27T00:06:32.049Z,98029.22
2023-01-27T00:11:09.465Z,98026.69
2023-01-27T00:15:28.062Z,98026.59
2023-01-27T00:19:46.226Z,98032.25
2023-01-27T00:24:22.499Z,98030.78
2023-01-27T00:28:40.859Z,98032.50
2023-01-27T00:33:17.296Z,98036.22
2023-01-27T00:37:34.838Z,98035.75
2023-01-27T00:41:52.625Z,98031.00
2023-01-27T00:46:10.127Z,98037.81
2023-01-27T00:50:27.737Z,98034.63
2023-01-27T00:54:45.166Z,98040.88
2023-01-27T00:59:03.105Z,98031.72
2023-01-27T01:03:21.119Z,98032.69
2023-01-27T01:07:38.937Z,98028.50
2023-01-27T01:11:56.382Z,98030.56
2023-01-27T01:16:24.278Z,98025.81
2023-01-27T01:20:46.567Z,98033.41
2023-01-27T01:25:04.979Z,98034.94
2023-01-27T01:29:22.423Z,98024.56
2023-01-27T01:33:40.426Z,98013.50
2023-01-27T01:37:57.932Z,98024.25
2023-01-27T01:42:15.129Z,98033.31
2023-01-27T01:46:32.591Z,98017.75
2023-01-27T01:51:02.240Z,98017.84
2023-01-27T01:55:19.899Z,98027.63
2023-01-27T02:00:01.423Z,98021.50
2023-01-27T02:04:25.553Z,98025.72
2023-01-27T02:08:46.373Z,98021.38
2023-01-27T02:13:04.070Z,98026.50
2023-01-27T02:17:22.332Z,98024.09
2023-01-27T02:21:39.848Z,98011.06
2023-01-27T02:26:21.147Z,98016.72
2023-01-27T02:30:38.834Z,98021.84
2023-01-27T02:34:57.186Z,98014.59
2023-01-27T02:39:17.603Z,98015.16
2023-01-27T02:43:35.165Z,98008.00
2023-01-27T02:47:52.765Z,98008.13
2023-01-27T02:52:10.231Z,98015.25
2023-01-27T02:56:27.986Z,98002.34
2023-01-27T03:00:45.504Z,98015.59
2023-01-27T03:05:03.296Z,98027.66
2023-01-27T03:09:20.926Z,98020.59
2023-01-27T03:13:38.643Z,98022.97
2023-01-27T03:18:16.076Z,98030.09
2023-01-27T03:22:33.982Z,98027.50
2023-01-27T03:26:51.451Z,98029.34
2023-01-27T03:31:22.018Z,98036.09
2023-01-27T03:35:48.177Z,98034.47
2023-01-27T03:40:26.028Z,98027.41
2023-01-27T03:45:02.317Z,98014.72
2023-01-27T03:49:19.906Z,98013.94
2023-01-27T03:53:38.273Z,98020.81
2023-01-27T03:57:57.898Z,98027.19
2023-01-27T04:02:34.151Z,98019.94
2023-01-27T04:07:03.683Z,98019.25
2023-01-27T04:11:40.059Z,98013.81
2023-01-27T04:15:57.674Z,98012.22
2023-01-27T04:20:15.338Z,98014.72
2023-01-27T04:24:33.581Z,98014.13
2023-01-27T04:28:51.407Z,98011.31
2023-01-27T04:33:10.425Z,98022.09
2023-01-27T04:37:27.978Z,98021.50
2023-01-27T04:41:46.232Z,98017.56
2023-01-27T04:46:04.488Z,98029.31
2023-01-27T04:50:21.997Z,98029.56
2023-01-27T04:54:39.576Z,98022.09
2023-01-27T04:59:03.118Z,98018.56
2023-01-27T05:03:20.786Z,98025.59
2023-01-27T05:07:39.554Z,98027.97
2023-01-27T05:11:57.112Z,98038.41
2023-01-27T05:16:21.326Z,98034.69
2023-01-27T05:20:39.022Z,98038.97
2023-01-27T05:24:56.448Z,98028.88
2023-01-27T05:29:14.278Z,98033.31
2023-01-27T05:33:32.199Z,98027.84
2023-01-27T05:37:50.494Z,98042.38
2023-01-27T05:42:07.946Z,98039.50
2023-01-27T05:46:29.431Z,98045.88
2023-01-27T05:50:56.000Z,98039.22
2023-01-27T05:55:13.875Z,98036.81
2023-01-27T05:59:31.584Z,98038.06
2023-01-27T06:03:49.823Z,98054.06
2023-01-27T06:08:07.177Z,98052.22
2023-01-27T06:12:24.741Z,98055.38
2023-01-27T06:16:43.673Z,98071.81
2023-01-27T06:21:03.662Z,98074.31
2023-01-27T06:25:21.236Z,98072.63
2023-01-27T06:29:38.700Z,98072.63
2023-01-27T06:33:56.992Z,98073.28
2023-01-27T06:38:15.700Z,98073.44
2023-01-27T06:42:33.581Z,98083.50
2023-01-27T06:46:53.517Z,98076.25
2023-01-27T06:51:11.157Z,98079.97
2023-01-27T06:55:29.342Z,98081.00
2023-01-27T06:59:46.929Z,98093.94
2023-01-27T07:04:04.491Z,98091.66
2023-01-27T07:08:22.104Z,98104.47
2023-01-27T07:12:39.804Z,98108.19
2023-01-27T07:16:57.353Z,98113.75
2023-01-27T07:21:14.806Z,98118.28
2023-01-27T07:25:35.135Z,98113.22
2023-01-27T07:29:52.720Z,98112.19
2023-01-27T07:34:10.345Z,98107.75
2023-01-27T07:38:27.786Z,98105.16
2023-01-27T07:42:45.662Z,98115.25
2023-01-27T07:47:03.567Z,98107.88
2023-01-27T07:51:21.160Z,98101.47
2023-01-27T07:55:38.643Z,98100.13
2023-01-27T07:59:56.889Z,98095.38
2023-01-27T08:04:14.199Z,98106.72
2023-01-27T08:08:31.904Z,98103.44
2023-01-27T08:12:49.674Z,98104.13
2023-01-27T08:17:07.144Z,98116.03
2023-01-27T08:21:25.553Z,98115.00
2023-01-27T08:25:50.729Z,98118.19
2023-01-27T08:30:09.448Z,98125.31
2023-01-27T08:34:26.923Z,98135.84
2023-01-27T08:38:45.887Z,98128.16
2023-01-27T08:43:04.972Z,98129.75
2023-01-27T08:47:23.086Z,98129.50
2023-01-27T08:51:40.796Z,98131.78
2023-01-27T08:56:04.014Z,98135.75
2023-01-27T09:00:22.559Z,98141.50
2023-01-27T09:04:44.097Z,98147.06
2023-01-27T09:09:12.270Z,98140.72
2023-01-27T09:13:30.068Z,98148.78
2023-01-27T09:17:47.537Z,98160.69
2023-01-27T09:22:06.019Z,98165.13
2023-01-27T09:26:23.496Z,98158.19
2023-01-27T09:30:41.359Z,98168.06
2023-01-27T09:34:58.859Z,98169.19
2023-01-27T09:39:19.037Z,98171.34
2023-01-27T09:44:14.001Z,98174.41
2023-01-27T09:49:20.464Z,98180.03
2023-01-27T09:54:01.654Z,98179.09
2023-01-27T09:58:53.613Z,98176.50
2023-01-27T10:04:02.153Z,98176.88
2023-01-27T10:08:35.761Z,98169.31
2023-01-27T10:13:04.273Z,98176.44
2023-01-27T10:18:15.464Z,98170.78
2023-01-27T10:22:54.243Z,98174.63
2023-01-27T10:27:40.814Z,98178.25
2023-01-27T10:32:08.378Z,98175.69
2023-01-27T10:36:32.811Z,98166.28
2023-01-27T10:41:16.203Z,98182.47
2023-01-27T10:45:56.824Z,98177.59
2023-01-27T10:50:31.065Z,98175.19
2023-01-27T10:55:03.246Z,98167.72
2023-01-27T10:59:34.934Z,98164.56
2023-01-27T11:04:43.341Z,98164.88
2023-01-27T11:09:22.386Z,98153.78
2023-01-27T11:13:41.967Z,98166.38
2023-01-27T11:18:13.411Z,98155.94
2023-01-27T11:22:38.614Z,98153.78
2023-01-27T11:27:12.561Z,98148.56
2023-01-27T11:31:51.959Z,98155.34
2023-01-27T11:36:10.219Z,98160.22
2023-01-27T11:40:32.777Z,98150.16
2023-01-27T11:44:54.851Z,98152.56
2023-01-27T11:49:14.770Z,98159.44
2023-01-27T11:53:37.001Z,98156.50
2023-01-27T11:58:21.125Z,98150.72
2023-01-27T12:02:50.357Z,98151.84
2023-01-27T12:07:20.204Z,98159.94
2023-01-27T12:11:37.788Z,98150.63
2023-01-27T12:16:04.857Z,98143.94
2023-01-27T12:20:22.392Z,98153.78
2023-01-27T12:24:46.847Z,98143.47
2023-01-27T12:29:14.855Z,98152.31
2023-01-27T12:33:34.384Z,98155.16
2023-01-27T12:38:05.022Z,98157.75
2023-01-27T12:42:41.013Z,98151.06
2023-01-27T12:47:04.924Z,98147.22
2023-01-27T12:51:41.212Z,98144.50
2023-01-27T12:56:23.855Z,98140.75
2023-01-27T13:00:46.416Z,98145.38
2023-01-27T13:05:08.466Z,98147.31
2023-01-27T13:09:33.964Z,98146.56
2023-01-27T13:13:51.890Z,98152.44
2023-01-27T13:18:19.354Z,98150.03
2023-01-27T13:22:48.234Z,98147.88
2023-01-27T13:27:14.312Z,98147.66
2023-01-27T13:31:57.264Z,98142.56
2023-01-27T13:36:17.469Z,98149.22
2023-01-27T13:40:43.535Z,98154.34
2023-01-27T13:45:33.812Z,98144.81
2023-01-27T13:50:05.703Z,98146.63
2023-01-27T13:54:23.961Z,98146.06
2023-01-27T13:58:55.647Z,98156.38
2023-01-27T14:03:31.762Z,98145.50
2023-01-27T14:07:54.386Z,98155.94
2023-01-27T14:12:26.797Z,98154.22
2023-01-27T14:16:59.655Z,98149.56
2023-01-27T14:21:51.765Z,98154.44
2023-01-27T14:26:53.550Z,98154.91
2023-01-27T14:31:20.742Z,98152.22
2023-01-27T14:35:57.752Z,98156.28
2023-01-27T14:40:35.135Z,98165.13
2023-01-27T14:45:41.132Z,98174.06
2023-01-27T14:50:52.307Z,98175.66
2023-01-27T14:55:54.395Z,98185.63
2023-01-27T15:01:21.293Z,98175.91
2023-01-27T15:05:41.162Z,98189.81
2023-01-27T15:10:29.642Z,98191.19
2023-01-27T15:15:11.338Z,98191.63
2023-01-27T15:20:07.873Z,98203.56
2023-01-27T15:24:57.562Z,98206.84
2023-01-27T15:29:16.191Z,98214.66
2023-01-27T15:33:52.545Z,98215.44
2023-01-27T15:38:33.134Z,98219.88
2023-01-27T15:43:02.700Z,98215.66
2023-01-27T15:47:27.068Z,98225.06
2023-01-27T15:51:44.653Z,98221.56
2023-01-27T15:56:04.172Z,98231.31
2023-01-27T16:00:38.989Z,98232.22
2023-01-27T16:05:21.735Z,98221.69
2023-01-27T16:09:47.018Z,98224.03
2023-01-27T16:14:17.183Z,98229.34
2023-01-27T16:19:12.025Z,98233.09
2023-01-27T16:24:05.406Z,98225.78
2023-01-27T16:28:27.630Z,98228.72
2023-01-27T16:32:59.499Z,98219.50
2023-01-27T16:37:37.989Z,98218.59
2023-01-27T16:41:59.427Z,98221.09
2023-01-27T16:46:39.539Z,98222.91
2023-01-27T16:51:11.227Z,98227.34
2023-01-27T16:55:29.164Z,98231.53
2023-01-27T16:59:47.159Z,98229.47
2023-01-27T17:04:19.062Z,98238.09
2023-01-27T17:08:48.368Z,98232.53
2023-01-27T17:13:06.088Z,98248.31
2023-01-27T17:17:26.346Z,98248.50
2023-01-27T17:21:55.576Z,98240.56
2023-01-27T17:26:18.379Z,98248.06
2023-01-27T17:30:40.126Z,98262.22
2023-01-27T17:35:00.573Z,98258.34
2023-01-27T17:39:26.567Z,98255.75
2023-01-27T17:43:45.058Z,98257.72
2023-01-27T17:48:02.548Z,98253.41
2023-01-27T17:52:31.309Z,98259.53
2023-01-27T17:56:52.047Z,98274.69
2023-01-27T18:01:10.061Z,98277.41
2023-01-27T18:05:32.128Z,98275.28
2023-01-27T18:09:55.719Z,98280.94
2023-01-27T18:14:19.656Z,98281.50
2023-01-27T18:18:37.161Z,98279.47
2023-01-27T18:22:54.963Z,98286.69
2023-01-27T18:27:26.861Z,98294.75
2023-01-27T18:31:55.809Z,98285.72
2023-01-27T18:36:23.304Z,98296.69
2023-01-27T18:40:42.161Z,98309.03
2023-01-27T18:44:59.806Z,98297.94
2023-01-27T18:49:17.327Z,98298.75
2023-01-27T18:53:34.908Z,98294.44
2023-01-27T18:57:56.323Z,98302.84
2023-01-27T19:02:16.423Z,98303.50
2023-01-27T19:06:34.260Z,98301.78
2023-01-27T19:10:53.065Z,98308.84
2023-01-27T19:15:15.099Z,98315.56
2023-01-27T19:19:33.048Z,98324.66
2023-01-27T19:23:50.735Z,98308.50
2023-01-27T19:28:18.178Z,98318.31
2023-01-27T19:32:35.992Z,98312.88
2023-01-27T19:36:53.682Z,98315.69
2023-01-27T19:41:11.333Z,98314.53
2023-01-27T19:45:29.144Z,98315.19
2023-01-27T19:49:46.828Z,98325.47
2023-01-27T19:54:05.136Z,98324.53
2023-01-27T19:58:26.421Z,98332.84
2023-01-27T20:02:44.154Z,98336.59
2023-01-27T20:07:01.768Z,98340.91
2023-01-27T20:11:30.697Z,98349.47
2023-01-27T20:15:48.195Z,98349.84
2023-01-27T20:20:06.395Z,98345.09
2023-01-27T20:24:23.797Z,98346.22
2023-01-27T20:28:41.763Z,98355.16
2023-01-27T20:33:01.043Z,98359.81
2023-01-27T20:37:18.835Z,98357.31
2023-01-27T20:41:36.545Z,98352.16
2023-01-27T20:45:54.416Z,98358.25
2023-01-27T20:50:12.359Z,98364.47
2023-01-27T20:54:30.944Z,98354.06
2023-01-27T20:58:49.199Z,98353.66
2023-01-27T21:03:06.696Z,98358.78
2023-01-27T21:07:25.251Z,98348.00
2023-01-27T21:11:43.745Z,98341.00
2023-01-27T21:16:02.187Z,98337.13
2023-01-27T21:20:19.723Z,98342.88
2023-01-27T21:24:37.409Z,98343.66
2023-01-27T21:28:55.209Z,98341.72
2023-01-27T21:33:13.377Z,98337.22
2023-01-27T21:37:30.789Z,98348.94
2023-01-27T21:41:54.419Z,98353.75
2023-01-27T21:46:12.056Z,98348.66
2023-01-27T21:50:29.396Z,98359.56
2023-01-27T21:54:47.275Z,98355.38
2023-01-27T21:59:04.947Z,98351.50
2023-01-27T22:03:24.024Z,98351.03
2023-01-27T22:07:42.299Z,98355.03
2023-01-27T22:12:03.061Z,98352.59
2023-01-27T22:16:21.926Z,98358.56
2023-01-27T22:20:39.490Z,98351.84
2023-01-27T22:24:57.263Z,98337.69
2023-01-27T22:29:15.214Z,98341.28
2023-01-27T22:33:32.828Z,98340.31
2023-01-27T22:37:50.389Z,98345.09
2023-01-27T22:42:11.124Z,98339.50
2023-01-27T22:46:28.594Z,98336.78
2023-01-27T22:50:46.193Z,98346.50
2023-01-27T22:55:06.201Z,98343.31
2023-01-27T22:59:23.763Z,98333.94
2023-01-27T23:03:41.180Z,98331.50
2023-01-27T23:07:58.883Z,98331.81
2023-01-27T23:12:16.646Z,98326.22
2023-01-27T23:16:34.307Z,98334.91
2023-01-27T23:20:52.240Z,98326.91
2023-01-27T23:25:10.772Z,98332.28
2023-01-27T23:29:29.343Z,98312.50
2023-01-27T23:33:48.299Z,98314.97
2023-01-27T23:38:14.051Z,98306.06
2023-01-27T23:42:37.045Z,98311.69
2023-01-27T23:46:54.859Z,98296.84
2023-01-27T23:51:13.736Z,98301.41
2023-01-27T23:55:31.361Z,98295.50
2023-01-27T23:59:48.787Z,98311.16
